Time;durP1;ratioP1;P1;durP2;ratioP2;P2;SDS_P1;SDS_P2;PMS_P1;PMS_P2;Temp;Humidity;BMP_temperature;BMP_pressure;BME280_temperature;BME280_humidity;BME280_pressure;Samples;Min_cycle;Max_cycle;Signal;HPM_P1;HPM_P2
2022/02/10 00:18:24;;;;;;;;;;;;;;;;;;4812229;28;19925;-66
2022/02/10 00:21:03;;;;;;;;;;;;;;;;;;4807463;28;20020;-66
2022/02/10 00:23:50;;;;;;;;;;;;;;;;;;4806348;28;19972;-66
2022/02/10 00:34:34;;;;;;;;;;;;;;;;;;4813860;28;19948;-66
2022/02/10 00:37:17;;;;;;;;;;;;;;;;;;4800677;28;19969;-68
2022/02/10 00:42:15;;;;;;;;;;;;;;;;;;4799800;28;19948;-67
2022/02/10 00:44:41;;;;;;;;;;;;;;;;;;4796906;28;19918;-67
2022/02/10 00:47:08;;;;;;;;;;;;;;;;;;4798612;28;20538;-67
2022/02/10 00:49:35;;;;;;;;;;;;;;;;;;4791896;28;19963;-66
2022/02/10 00:52:04;;;;;;;;;;;;;;;;;;4797622;28;19925;-66
2022/02/10 00:54:30;;;;;;;;;;;;;;;;;;4790607;28;19969;-66
2022/02/10 00:56:57;;;;;;;;;;;;;;;;;;4792981;28;19924;-66
2022/02/10 01:00:03;;;;;;;;;;;;;;;;;;4790393;28;20296;-67
2022/02/10 01:29:43;;;;;;;;;;;;;;;;;;4804600;28;19952;-65
2022/02/10 01:32:10;;;;;;;;;;;;;;;;;;4805553;28;20005;-65
2022/02/10 01:34:54;;;;;;;;;;;;;;;;;;4803206;28;20402;-65
2022/02/10 01:37:22;;;;;;;;;;;;;;;;;;4787803;28;20578;-65
2022/02/10 01:40:05;;;;;;;;;;;;;;;;;;4804787;28;20065;-66
2022/02/10 01:43:25;;;;;;;;;;;;;;;;;;4804567;28;20147;-66
2022/02/10 02:04:46;;;;;;;;;;;;;;;;;;4812406;28;20051;-66
2022/02/10 02:07:12;;;;;;;;;;;;;;;;;;4804323;28;19936;-66
2022/02/10 02:09:38;;;;;;;;;;;;;;;;;;4814530;28;19928;-65
2022/02/10 02:12:06;;;;;;;;;;;;;;;;;;4807653;28;19918;-66
2022/02/10 02:14:32;;;;;;;;;;;;;;;;;;4806897;28;19925;-66
2022/02/10 02:17:00;;;;;;;;;;;;;;;;;;4807133;28;20013;-66
2022/02/10 02:19:26;;;;;;;;;;;;;;;;;;4809413;28;20824;-66
2022/02/10 02:22:14;;;;;;;;;;;;;;;;;;4810367;28;20007;-67
2022/02/10 02:24:40;;;;;;;;;;;;;;;;;;4791886;28;19976;-66
2022/02/10 02:27:10;;;;;;;;;;;;;;;;;;4804894;28;20449;-66
2022/02/10 02:30:10;;;;;;;;;;;;;;;;;;4800957;28;21202;-67
2022/02/10 02:32:47;;;;;;;;;;;;;;;;;;4811165;28;19921;-65
2022/02/10 02:35:31;;;;;;;;;;;;;;;;;;4789784;28;19956;-66
2022/02/10 02:38:16;;;;;;;;;;;;;;;;;;4804088;28;21632;-65
2022/02/10 03:05:33;;;;;;;;;;;;;;;;;;4806572;28;19940;-66
2022/02/10 03:08:10;;;;;;;;;;;;;;;;;;4806586;28;19918;-66
2022/02/10 03:13:21;;;;;;;;;;;;;;;;;;4802633;28;20504;-66
2022/02/10 03:16:33;;;;;;;;;;;;;;;;;;4804676;28;19944;-65
2022/02/10 03:19:04;;;;;;;;;;;;;;;;;;4791376;28;19917;-65
2022/02/10 04:05:06;;;;;;;;;;;;;;;;;;4801360;28;19925;-66
2022/02/10 04:13:07;;;;;;;;;;;;;;;;;;4803989;28;20203;-66
2022/02/10 04:31:45;;;;;;;;;;;;;;;;;;4796227;28;20635;-66
2022/02/10 04:56:02;;;;;;;;;;;;;;;;;;4815009;28;19964;-65
2022/02/10 05:13:27;;;;;;;;;;;;;;;;;;4778891;28;19924;-66
2022/02/10 05:20:21;;;;;;;;;;;;;;;;;;4785224;28;21043;-66
2022/02/10 05:33:58;;;;;;;;;;;;;;;;;;4789126;28;20024;-69
2022/02/10 05:36:28;;;;;;;;;;;;;;;;;;4790582;28;19922;-67
2022/02/10 05:39:07;;;;;;;;;;;;;;;;;;4788441;28;20644;-68
2022/02/10 05:49:47;;;;;;;;;;;;;;;;;;4810100;28;19929;-65
2022/02/10 05:57:43;;;;;;;;;;;;;;;;;;4814472;28;19918;-68
2022/02/10 06:55:28;;;;;;;;;;;;;;;;;;4692648;29;20524;-66
2022/02/10 07:13:53;;;;;;;;;;;;;;;;;;4797634;28;19949;-66
2022/02/10 07:54:29;;;;;;;;;;;;;;;;;;4754935;29;19914;-67
2022/02/10 08:57:32;;;;;;;;;;;;;;;;;;4799668;28;20009;-66
2022/02/10 09:18:50;;;;;;;;;;;;;;;;;;4797665;28;22536;-66
2022/02/10 09:57:09;;;;;;;;;;;;;;;;;;4787338;28;20007;-67
2022/02/10 10:01:59;;;;;;;;;;;;;;;;;;4784668;28;19925;-66
2022/02/10 10:04:40;;;;;;;;;;;;;;;;;;4790702;28;20219;-66
2022/02/10 10:07:12;;;;;;;;;;;;;;;;;;4795444;28;19921;-66
2022/02/10 10:15:09;;;;;;;;;;;;;;;;;;4801888;28;19918;-67
2022/02/10 10:18:01;;;;;;;;;;;;;;;;;;4800722;28;20770;-68
2022/02/10 10:20:41;;;;;;;;;;;;;;;;;;4800198;28;20843;-66
2022/02/10 10:45:17;;;;;;;;;;;;;;;;;;4800194;28;20331;-66
2022/02/10 10:50:28;;;;;;;;;;;;;;;;;;4803849;28;20133;-82
2022/02/10 10:56:03;;;;;;;;;;;;;;;;;;4812463;28;20375;-81
2022/02/10 10:59:31;;;;;;;;;;;;;;;;;;4819517;28;19918;-83
2022/02/10 11:25:14;;;;;;;;;;;;;;;;;;4798676;28;19928;-81
2022/02/10 11:39:46;;;;;;;;;;;;;;;;;;4852304;28;20018;-84
2022/02/10 11:42:39;;;;;;;;;;;;;;;;;;4973985;28;19913;-84
2022/02/10 12:32:29;;;;;;;;;;;;;;;;;;4826260;28;20008;-82
2022/02/10 12:37:05;;;;;;;;;;;;;;;;;;4827681;28;21071;-83
2022/02/10 12:40:02;;;;;;;;;;;;;;;;;;4823848;28;20063;-82
2022/02/10 13:24:49;;;;;;;;;;;;;;;;;;4989136;28;19971;-82
2022/02/10 13:30:17;;;;;;;;;;;;;;;;;;4995033;28;19925;-82
2022/02/10 13:49:21;;;;;;;;;;;;;;;;;;5006241;28;20007;-83
2022/02/10 14:18:24;;;;;;;;;;;;;;;;;;5017477;28;19921;-82
2022/02/10 14:28:08;;;;;;;;;;;;;;;;;;5015798;28;20648;-80
2022/02/10 14:30:34;;;;;;;;;;;;;;;;;;4994047;28;19920;-80
2022/02/10 14:33:00;;;;;;;;;;;;;;;;;;4995753;28;19913;-80
2022/02/10 14:35:34;;;;;;;;;;;;;;;;;;4994648;28;19917;-82
2022/02/10 15:10:52;;;;;;;;;;;;;;;;;;5018536;28;20309;-82
2022/02/10 15:49:22;;;;;;;;;;;;;;;;;;5013679;28;19921;-85
2022/02/10 15:52:05;;;;;;;;;;;;;;;;;;5008249;28;19934;-84
2022/02/10 15:54:52;;;;;;;;;;;;;;;;;;5009217;28;20031;-84
2022/02/10 16:18:22;;;;;;;;;;;;;;;;;;5017791;28;19981;-82
2022/02/10 16:20:59;;;;;;;;;;;;;;;;;;5014570;28;20613;-83
2022/02/10 16:23:29;;;;;;;;;;;;;;;;;;5000102;28;19913;-84
2022/02/10 16:26:10;;;;;;;;;;;;;;;;;;5000023;28;20333;-84
2022/02/10 16:28:44;;;;;;;;;;;;;;;;;;5000168;28;19917;-83
2022/02/10 16:31:11;;;;;;;;;;;;;;;;;;5003085;28;19940;-85
2022/02/10 16:33:42;;;;;;;;;;;;;;;;;;5000999;28;19955;-85
2022/02/10 16:36:09;;;;;;;;;;;;;;;;;;5016638;28;19924;-84
2022/02/10 16:38:35;;;;;;;;;;;;;;;;;;5001428;28;20875;-86
2022/02/10 16:41:01;;;;;;;;;;;;;;;;;;5000558;28;19913;-84
2022/02/10 16:43:27;;;;;;;;;;;;;;;;;;5014842;28;19925;-84
2022/02/10 16:45:55;;;;;;;;;;;;;;;;;;5009021;28;20004;-85
2022/02/10 16:48:21;;;;;;;;;;;;;;;;;;5007118;28;20040;-84
2022/02/10 16:50:48;;;;;;;;;;;;;;;;;;4996119;28;19913;-84
2022/02/10 16:53:17;;;;;;;;;;;;;;;;;;5012145;28;19913;-84
2022/02/10 16:58:27;;;;;;;;;;;;;;;;;;5013624;28;20309;-84
2022/02/10 17:01:27;;;;;;;;;;;;;;;;;;4993436;28;19913;-86
2022/02/10 17:16:06;;;;;;;;;;;;;;;;;;5014683;28;19971;-83
2022/02/10 17:17:59;;;;;;;;;;;;;;;;;;5006637;28;19955;-85
2022/02/10 17:29:12;;;;;;;;;;;;;;;;;;5023196;28;21258;-92
2022/02/10 17:53:48;;;;;;;;;;;;;;;;;;4985941;28;19921;-85
2022/02/10 17:56:21;;;;;;;;;;;;;;;;;;4993132;28;19917;-84
2022/02/10 18:01:55;;;;;;;;;;;;;;;;;;;;;
2022/02/10 18:04:31;;;;;;;;;;;;;;;;;;5000172;28;19920;-84
2022/02/10 18:16:17;;;;;;;;;;;;;;;;;;4989958;28;20008;-83
2022/02/10 18:21:29;;;;;;;;;;;;;;;;;;4908830;29;19954;-84
2022/02/10 19:03:20;;;;;;;;;;;;;;;;;;4947227;28;19918;-66
2022/02/10 19:05:50;;;;;;;;;;;;;;;;;;4949325;28;20277;-65
2022/02/10 19:08:25;;;;;;;;;;;;;;;;;;4946300;28;20570;-65
2022/02/10 19:10:57;;;;;;;;;;;;;;;;;;4945048;28;20047;-68
2022/02/10 19:13:24;;;;;;;;;;;;;;;;;;4946688;28;19924;-66
2022/02/10 19:15:55;;;;;;;;;;;;;;;;;;4925772;28;20025;-67
2022/02/10 19:18:21;;;;;;;;;;;;;;;;;;4944687;28;19917;-67
2022/02/10 19:20:47;;;;;;;;;;;;;;;;;;4930920;28;20705;-67
2022/02/10 19:23:14;;;;;;;;;;;;;;;;;;4948473;28;19914;-67
2022/02/10 19:25:42;;;;;;;;;;;;;;;;;;4943832;28;19917;-66
2022/02/10 19:28:11;;;;;;;;;;;;;;;;;;4948038;28;19914;-66
2022/02/10 19:30:38;;;;;;;;;;;;;;;;;;4944651;28;19921;-66
2022/02/10 19:33:09;;;;;;;;;;;;;;;;;;4945853;28;20412;-66
2022/02/10 19:35:43;;;;;;;;;;;;;;;;;;4949005;28;19934;-65
2022/02/10 19:38:18;;;;;;;;;;;;;;;;;;4948288;28;19914;-66
2022/02/10 19:40:47;;;;;;;;;;;;;;;;;;4943497;28;19921;-66
2022/02/10 19:43:18;;;;;;;;;;;;;;;;;;4945935;28;20358;-67
2022/02/10 19:45:47;;;;;;;;;;;;;;;;;;4941434;28;19914;-66
2022/02/10 19:48:14;;;;;;;;;;;;;;;;;;4960987;28;20032;-66
2022/02/10 19:50:42;;;;;;;;;;;;;;;;;;4962119;28;19952;-66
2022/02/10 19:53:13;;;;;;;;;;;;;;;;;;4966404;28;20287;-66
2022/02/10 19:55:44;;;;;;;;;;;;;;;;;;4947806;28;19922;-66
2022/02/10 19:58:18;;;;;;;;;;;;;;;;;;4967209;28;19922;-66
2022/02/10 20:00:58;;;;;;;;;;;;;;;;;;4963904;28;19913;-67
2022/02/10 20:03:27;;;;;;;;;;;;;;;;;;4965911;28;19922;-66
2022/02/10 20:05:55;;;;;;;;;;;;;;;;;;4964798;28;19924;-66
2022/02/10 20:08:25;;;;;;;;;;;;;;;;;;4963291;28;19918;-66
2022/02/10 20:10:56;;;;;;;;;;;;;;;;;;4943795;28;19914;-67
2022/02/10 20:13:23;;;;;;;;;;;;;;;;;;4941398;28;19913;-67
2022/02/10 20:15:50;;;;;;;;;;;;;;;;;;4948849;28;20213;-66
2022/02/10 20:18:18;;;;;;;;;;;;;;;;;;4967548;28;19918;-66
2022/02/10 20:20:49;;;;;;;;;;;;;;;;;;4963959;28;20399;-67
2022/02/10 20:23:25;;;;;;;;;;;;;;;;;;4967643;28;19957;-66
2022/02/10 20:25:51;;;;;;;;;;;;;;;;;;4962283;28;19917;-66
2022/02/10 20:28:22;;;;;;;;;;;;;;;;;;4965937;28;19914;-66
2022/02/10 20:30:49;;;;;;;;;;;;;;;;;;4964802;28;19960;-66
2022/02/10 20:33:21;;;;;;;;;;;;;;;;;;4966618;28;21542;-67
2022/02/10 20:35:58;;;;;;;;;;;;;;;;;;4962795;28;19917;-67
2022/02/10 20:38:26;;;;;;;;;;;;;;;;;;4948717;28;19914;-67
2022/02/10 20:41:05;;;;;;;;;;;;;;;;;;4961444;28;20043;-66
2022/02/10 20:43:31;;;;;;;;;;;;;;;;;;4968987;28;20065;-66
2022/02/10 20:46:02;;;;;;;;;;;;;;;;;;4960578;28;19969;-66
2022/02/10 20:48:40;;;;;;;;;;;;;;;;;;4921453;28;20419;-67
2022/02/10 20:51:09;;;;;;;;;;;;;;;;;;4947582;28;19918;-66
2022/02/10 20:53:36;;;;;;;;;;;;;;;;;;4933195;28;19945;-67
2022/02/10 20:56:03;;;;;;;;;;;;;;;;;;4945780;28;19925;-66
2022/02/10 20:58:30;;;;;;;;;;;;;;;;;;4948464;28;19918;-69
2022/02/10 21:00:59;;;;;;;;;;;;;;;;;;4944586;28;19914;-67
2022/02/10 21:03:29;;;;;;;;;;;;;;;;;;4935410;28;20017;-68
2022/02/10 21:11:16;;;;;;;;;;;;;;;;;;4952074;28;19984;-68
2022/02/10 21:13:44;;;;;;;;;;;;;;;;;;4949105;28;20487;-66
2022/02/10 21:16:10;;;;;;;;;;;;;;;;;;4933353;28;20025;-66
2022/02/10 21:18:40;;;;;;;;;;;;;;;;;;4933286;28;19920;-67
2022/02/10 21:21:13;;;;;;;;;;;;;;;;;;4943953;28;19961;-67
2022/02/10 21:23:51;;;;;;;;;;;;;;;;;;4927943;28;19925;-67
2022/02/10 21:26:27;;;;;;;;;;;;;;;;;;4947131;28;19930;-65
2022/02/10 21:28:58;;;;;;;;;;;;;;;;;;4945741;28;19925;-65
2022/02/10 21:31:25;;;;;;;;;;;;;;;;;;4950567;28;19914;-68
2022/02/10 21:39:57;;;;;;;;;;;;;;;;;;4874844;29;19915;-66
2022/02/10 22:09:47;;;;;;;;;;;;;;;;;;4873022;29;19927;-66
2022/02/10 22:18:32;;;;;;;;;;;;;;;;;;4945326;28;19925;-65
2022/02/10 22:20:58;;;;;;;;;;;;;;;;;;4947216;28;20258;-66
2022/02/10 22:23:26;;;;;;;;;;;;;;;;;;4952048;28;19918;-65
2022/02/10 22:25:56;;;;;;;;;;;;;;;;;;4945547;28;19997;-66
2022/02/10 22:29:12;;;;;;;;;;;;;;;;;;4949495;28;19929;-66
2022/02/10 22:34:28;;;;;;;;;;;;;;;;;;4946592;28;19972;-66
2022/02/10 22:36:54;;;;;;;;;;;;;;;;;;4947467;28;19926;-66
2022/02/10 22:39:20;;;;;;;;;;;;;;;;;;4948569;28;19921;-66
2022/02/10 22:41:46;;;;;;;;;;;;;;;;;;4948151;28;19913;-66
2022/02/10 22:44:12;;;;;;;;;;;;;;;;;;4951547;28;20705;-66
2022/02/10 22:46:38;;;;;;;;;;;;;;;;;;4949674;28;20371;-67
2022/02/10 22:49:05;;;;;;;;;;;;;;;;;;4951384;28;20436;-66
2022/02/10 22:51:33;;;;;;;;;;;;;;;;;;4947140;28;19914;-66
2022/02/10 22:53:59;;;;;;;;;;;;;;;;;;4927459;28;21795;-66
2022/02/10 22:56:28;;;;;;;;;;;;;;;;;;4949480;28;19932;-66
2022/02/10 22:58:56;;;;;;;;;;;;;;;;;;4942818;28;19925;-65
2022/02/10 23:01:25;;;;;;;;;;;;;;;;;;4932027;28;19914;-65
2022/02/10 23:03:51;;;;;;;;;;;;;;;;;;4946585;28;19910;-65
2022/02/10 23:06:18;;;;;;;;;;;;;;;;;;4932266;28;19918;-66
2022/02/10 23:08:47;;;;;;;;;;;;;;;;;;4947414;28;19991;-66
2022/02/10 23:11:17;;;;;;;;;;;;;;;;;;4933148;28;19914;-65
2022/02/10 23:13:46;;;;;;;;;;;;;;;;;;4944892;28;19937;-66
2022/02/10 23:16:13;;;;;;;;;;;;;;;;;;4946537;28;19964;-66
2022/02/10 23:18:39;;;;;;;;;;;;;;;;;;4945117;28;20017;-66
2022/02/10 23:21:09;;;;;;;;;;;;;;;;;;4947543;28;19917;-66
2022/02/10 23:23:37;;;;;;;;;;;;;;;;;;4946053;28;19914;-66
2022/02/10 23:26:03;;;;;;;;;;;;;;;;;;4943945;28;20467;-66
2022/02/10 23:28:29;;;;;;;;;;;;;;;;;;4945848;28;19914;-65
2022/02/10 23:30:55;;;;;;;;;;;;;;;;;;4941832;28;19914;-65
2022/02/10 23:33:26;;;;;;;;;;;;;;;;;;4948575;28;20338;-68
2022/02/10 23:39:05;;;;;;;;;;;;;;;;;;4942617;28;19929;-67
2022/02/10 23:43:58;;;;;;;;;;;;;;;;;;4942850;28;19914;-67
2022/02/10 23:46:24;;;;;;;;;;;;;;;;;;4928934;28;19914;-67
2022/02/10 23:48:54;;;;;;;;;;;;;;;;;;4939439;28;20537;-68
2022/02/10 23:51:29;;;;;;;;;;;;;;;;;;4946857;28;20005;-67
2022/02/10 23:54:09;;;;;;;;;;;;;;;;;;4946312;28;20557;-67
2022/02/10 23:56:43;;;;;;;;;;;;;;;;;;4943021;28;19925;-67
2022/02/10 23:59:39;;;;;;;;;;;;;;;;;;4942910;28;19921;-67
